sensor_id;sensor_type;location;lat;lon;timestamp;P1;durP1;ratioP1;P2;durP2;ratioP2
48034;SDS011;33812;46.480;6.834;2024-03-08T00:00:27;1.30;;;1.00;;
48034;SDS011;33812;46.480;6.834;2024-03-08T00:04:30;4.78;;;2.15;;
48034;SDS011;33812;46.480;6.834;2024-03-08T00:08:32;1.00;;;0.70;;
48034;SDS011;33812;46.480;6.834;2024-03-08T00:12:34;0.98;;;0.70;;
48034;SDS011;33812;46.480;6.834;2024-03-08T00:16:35;1.10;;;0.70;;
48034;SDS011;33812;46.480;6.834;2024-03-08T00:20:39;1.38;;;0.65;;
48034;SDS011;33812;46.480;6.834;2024-03-08T00:24:41;1.65;;;0.77;;
48034;SDS011;33812;46.480;6.834;2024-03-08T00:28:43;0.70;;;0.60;;
48034;SDS011;33812;46.480;6.834;2024-03-08T00:32:45;1.40;;;0.90;;
48034;SDS011;33812;46.480;6.834;2024-03-08T00:36:48;1.05;;;0.60;;
48034;SDS011;33812;46.480;6.834;2024-03-08T00:40:52;1.02;;;0.68;;
48034;SDS011;33812;46.480;6.834;2024-03-08T00:44:54;2.05;;;0.90;;
48034;SDS011;33812;46.480;6.834;2024-03-08T00:48:58;1.40;;;0.77;;
48034;SDS011;33812;46.480;6.834;2024-03-08T00:53:01;0.73;;;0.70;;
48034;SDS011;33812;46.480;6.834;2024-03-08T00:57:05;1.20;;;0.75;;
48034;SDS011;33812;46.480;6.834;2024-03-08T01:01:06;0.55;;;0.55;;
48034;SDS011;33812;46.480;6.834;2024-03-08T01:05:10;1.33;;;0.70;;
48034;SDS011;33812;46.480;6.834;2024-03-08T01:09:13;0.80;;;0.70;;
48034;SDS011;33812;46.480;6.834;2024-03-08T01:13:18;0.80;;;0.80;;
48034;SDS011;33812;46.480;6.834;2024-03-08T01:17:21;1.10;;;0.70;;
48034;SDS011;33812;46.480;6.834;2024-03-08T01:21:24;1.65;;;0.98;;
48034;SDS011;33812;46.480;6.834;2024-03-08T01:25:27;1.60;;;0.80;;
48034;SDS011;33812;46.480;6.834;2024-03-08T01:29:29;2.67;;;0.80;;
48034;SDS011;33812;46.480;6.834;2024-03-08T01:33:31;0.73;;;0.63;;
48034;SDS011;33812;46.480;6.834;2024-03-08T01:37:32;1.08;;;0.70;;
48034;SDS011;33812;46.480;6.834;2024-03-08T01:41:36;1.00;;;0.70;;
48034;SDS011;33812;46.480;6.834;2024-03-08T01:45:37;1.58;;;0.65;;
48034;SDS011;33812;46.480;6.834;2024-03-08T01:49:39;1.77;;;0.98;;
48034;SDS011;33812;46.480;6.834;2024-03-08T01:53:41;1.08;;;0.70;;
48034;SDS011;33812;46.480;6.834;2024-03-08T01:57:48;0.70;;;0.70;;
48034;SDS011;33812;46.480;6.834;2024-03-08T02:01:50;0.63;;;0.60;;
48034;SDS011;33812;46.480;6.834;2024-03-08T02:05:53;1.00;;;0.80;;
48034;SDS011;33812;46.480;6.834;2024-03-08T02:09:55;0.80;;;0.80;;
48034;SDS011;33812;46.480;6.834;2024-03-08T02:13:58;1.88;;;0.93;;
48034;SDS011;33812;46.480;6.834;2024-03-08T02:18:00;0.98;;;0.90;;
48034;SDS011;33812;46.480;6.834;2024-03-08T02:22:03;0.70;;;0.70;;
48034;SDS011;33812;46.480;6.834;2024-03-08T02:26:06;1.15;;;0.70;;
48034;SDS011;33812;46.480;6.834;2024-03-08T02:30:09;1.40;;;0.80;;
48034;SDS011;33812;46.480;6.834;2024-03-08T02:34:12;0.83;;;0.73;;
48034;SDS011;33812;46.480;6.834;2024-03-08T02:38:16;1.35;;;0.68;;
48034;SDS011;33812;46.480;6.834;2024-03-08T02:42:19;0.70;;;0.70;;
48034;SDS011;33812;46.480;6.834;2024-03-08T02:46:21;0.88;;;0.63;;
48034;SDS011;33812;46.480;6.834;2024-03-08T02:50:22;0.77;;;0.77;;
48034;SDS011;33812;46.480;6.834;2024-03-08T02:54:28;1.15;;;0.85;;
48034;SDS011;33812;46.480;6.834;2024-03-08T02:58:29;0.80;;;0.65;;
48034;SDS011;33812;46.480;6.834;2024-03-08T03:02:31;0.75;;;0.68;;
48034;SDS011;33812;46.480;6.834;2024-03-08T03:06:34;1.05;;;0.82;;
48034;SDS011;33812;46.480;6.834;2024-03-08T03:10:38;1.17;;;0.70;;
48034;SDS011;33812;46.480;6.834;2024-03-08T03:14:40;0.98;;;0.75;;
48034;SDS011;33812;46.480;6.834;2024-03-08T03:18:41;0.65;;;0.52;;
48034;SDS011;33812;46.480;6.834;2024-03-08T03:22:43;0.80;;;0.80;;
48034;SDS011;33812;46.480;6.834;2024-03-08T03:26:48;0.98;;;0.70;;
48034;SDS011;33812;46.480;6.834;2024-03-08T03:30:52;1.15;;;0.88;;
48034;SDS011;33812;46.480;6.834;2024-03-08T03:34:54;0.85;;;0.80;;
48034;SDS011;33812;46.480;6.834;2024-03-08T03:38:55;1.02;;;0.93;;
48034;SDS011;33812;46.480;6.834;2024-03-08T03:43:07;0.98;;;0.80;;
48034;SDS011;33812;46.480;6.834;2024-03-08T03:47:10;0.73;;;0.57;;
48034;SDS011;33812;46.480;6.834;2024-03-08T03:51:12;0.88;;;0.80;;
48034;SDS011;33812;46.480;6.834;2024-03-08T03:55:15;1.15;;;0.77;;
48034;SDS011;33812;46.480;6.834;2024-03-08T03:59:19;0.50;;;0.47;;
48034;SDS011;33812;46.480;6.834;2024-03-08T04:03:21;3.33;;;0.95;;
48034;SDS011;33812;46.480;6.834;2024-03-08T04:07:23;1.00;;;0.68;;
48034;SDS011;33812;46.480;6.834;2024-03-08T04:11:24;0.93;;;0.70;;
48034;SDS011;33812;46.480;6.834;2024-03-08T04:15:28;1.00;;;0.75;;
48034;SDS011;33812;46.480;6.834;2024-03-08T04:19:30;0.87;;;0.87;;
48034;SDS011;33812;46.480;6.834;2024-03-08T04:23:34;0.60;;;0.60;;
48034;SDS011;33812;46.480;6.834;2024-03-08T04:27:36;1.48;;;0.82;;
48034;SDS011;33812;46.480;6.834;2024-03-08T04:31:40;1.02;;;0.90;;
48034;SDS011;33812;46.480;6.834;2024-03-08T04:35:41;1.10;;;1.00;;
48034;SDS011;33812;46.480;6.834;2024-03-08T04:39:46;0.90;;;0.80;;
48034;SDS011;33812;46.480;6.834;2024-03-08T04:43:48;0.70;;;0.70;;
48034;SDS011;33812;46.480;6.834;2024-03-08T04:47:51;0.65;;;0.65;;
48034;SDS011;33812;46.480;6.834;2024-03-08T04:51:53;1.00;;;0.90;;
48034;SDS011;33812;46.480;6.834;2024-03-08T04:55:55;0.90;;;0.70;;
48034;SDS011;33812;46.480;6.834;2024-03-08T04:59:58;0.73;;;0.60;;
48034;SDS011;33812;46.480;6.834;2024-03-08T05:04:01;0.75;;;0.63;;
48034;SDS011;33812;46.480;6.834;2024-03-08T05:08:03;0.70;;;0.70;;
48034;SDS011;33812;46.480;6.834;2024-03-08T05:12:06;0.90;;;0.80;;
48034;SDS011;33812;46.480;6.834;2024-03-08T05:16:08;0.95;;;0.90;;
48034;SDS011;33812;46.480;6.834;2024-03-08T05:20:11;0.90;;;0.80;;
48034;SDS011;33812;46.480;6.834;2024-03-08T05:24:13;1.80;;;0.90;;
48034;SDS011;33812;46.480;6.834;2024-03-08T05:28:16;1.80;;;0.95;;
48034;SDS011;33812;46.480;6.834;2024-03-08T05:32:18;1.30;;;1.00;;
48034;SDS011;33812;46.480;6.834;2024-03-08T05:36:21;1.52;;;0.90;;
48034;SDS011;33812;46.480;6.834;2024-03-08T05:40:23;0.80;;;0.77;;
48034;SDS011;33812;46.480;6.834;2024-03-08T05:44:25;1.85;;;1.15;;
48034;SDS011;33812;46.480;6.834;2024-03-08T05:48:28;1.10;;;0.80;;
48034;SDS011;33812;46.480;6.834;2024-03-08T05:52:33;1.08;;;0.65;;
48034;SDS011;33812;46.480;6.834;2024-03-08T05:56:35;1.65;;;0.80;;
48034;SDS011;33812;46.480;6.834;2024-03-08T06:00:37;1.27;;;0.88;;
48034;SDS011;33812;46.480;6.834;2024-03-08T06:04:40;0.80;;;0.80;;
48034;SDS011;33812;46.480;6.834;2024-03-08T06:08:44;1.70;;;1.23;;
48034;SDS011;33812;46.480;6.834;2024-03-08T06:12:47;2.50;;;0.93;;
48034;SDS011;33812;46.480;6.834;2024-03-08T06:16:50;9.43;;;1.27;;
48034;SDS011;33812;46.480;6.834;2024-03-08T06:20:52;5.72;;;1.40;;
48034;SDS011;33812;46.480;6.834;2024-03-08T06:24:55;9.82;;;1.40;;
48034;SDS011;33812;46.480;6.834;2024-03-08T06:28:57;8.13;;;1.30;;
48034;SDS011;33812;46.480;6.834;2024-03-08T06:32:59;5.32;;;4.82;;
48034;SDS011;33812;46.480;6.834;2024-03-08T06:37:01;7.30;;;1.80;;
48034;SDS011;33812;46.480;6.834;2024-03-08T06:41:04;4.15;;;1.80;;
48034;SDS011;33812;46.480;6.834;2024-03-08T06:45:07;3.90;;;1.48;;
48034;SDS011;33812;46.480;6.834;2024-03-08T06:49:10;8.93;;;1.52;;
48034;SDS011;33812;46.480;6.834;2024-03-08T06:53:12;7.43;;;1.40;;
48034;SDS011;33812;46.480;6.834;2024-03-08T06:57:16;1.10;;;0.93;;
48034;SDS011;33812;46.480;6.834;2024-03-08T07:01:17;2.28;;;1.17;;
48034;SDS011;33812;46.480;6.834;2024-03-08T07:05:20;2.90;;;1.52;;
48034;SDS011;33812;46.480;6.834;2024-03-08T07:09:23;6.53;;;1.20;;
48034;SDS011;33812;46.480;6.834;2024-03-08T07:13:27;2.55;;;1.20;;
48034;SDS011;33812;46.480;6.834;2024-03-08T07:17:29;5.05;;;3.40;;
48034;SDS011;33812;46.480;6.834;2024-03-08T07:21:34;5.00;;;1.20;;
48034;SDS011;33812;46.480;6.834;2024-03-08T07:25:36;5.88;;;1.20;;
48034;SDS011;33812;46.480;6.834;2024-03-08T07:29:40;5.85;;;1.38;;
48034;SDS011;33812;46.480;6.834;2024-03-08T07:33:42;2.42;;;1.33;;
48034;SDS011;33812;46.480;6.834;2024-03-08T07:37:44;7.90;;;1.50;;
48034;SDS011;33812;46.480;6.834;2024-03-08T07:41:46;8.63;;;1.83;;
48034;SDS011;33812;46.480;6.834;2024-03-08T07:45:49;2.75;;;1.30;;
48034;SDS011;33812;46.480;6.834;2024-03-08T07:49:53;7.75;;;1.58;;
48034;SDS011;33812;46.480;6.834;2024-03-08T07:53:55;2.50;;;1.42;;
48034;SDS011;33812;46.480;6.834;2024-03-08T07:57:57;3.13;;;1.65;;
48034;SDS011;33812;46.480;6.834;2024-03-08T08:02:00;2.53;;;1.50;;
48034;SDS011;33812;46.480;6.834;2024-03-08T08:06:02;2.28;;;1.48;;
48034;SDS011;33812;46.480;6.834;2024-03-08T08:10:04;2.15;;;1.50;;
48034;SDS011;33812;46.480;6.834;2024-03-08T08:14:07;2.10;;;1.42;;
48034;SDS011;33812;46.480;6.834;2024-03-08T08:18:11;4.63;;;1.40;;
48034;SDS011;33812;46.480;6.834;2024-03-08T08:22:14;2.10;;;1.20;;
48034;SDS011;33812;46.480;6.834;2024-03-08T08:26:16;3.28;;;1.30;;
48034;SDS011;33812;46.480;6.834;2024-03-08T08:30:17;2.38;;;1.33;;
48034;SDS011;33812;46.480;6.834;2024-03-08T08:34:21;2.60;;;1.23;;
48034;SDS011;33812;46.480;6.834;2024-03-08T08:38:24;2.50;;;1.27;;
48034;SDS011;33812;46.480;6.834;2024-03-08T08:42:26;5.13;;;1.50;;
48034;SDS011;33812;46.480;6.834;2024-03-08T08:46:28;2.30;;;1.65;;
48034;SDS011;33812;46.480;6.834;2024-03-08T08:50:32;4.13;;;1.85;;
48034;SDS011;33812;46.480;6.834;2024-03-08T08:54:34;2.47;;;1.27;;
48034;SDS011;33812;46.480;6.834;2024-03-08T08:58:36;1.35;;;1.10;;
48034;SDS011;33812;46.480;6.834;2024-03-08T09:02:38;3.90;;;1.30;;
48034;SDS011;33812;46.480;6.834;2024-03-08T09:06:41;3.35;;;1.15;;
48034;SDS011;33812;46.480;6.834;2024-03-08T09:10:44;1.85;;;1.20;;
48034;SDS011;33812;46.480;6.834;2024-03-08T09:14:46;6.03;;;1.80;;
48034;SDS011;33812;46.480;6.834;2024-03-08T09:18:48;4.28;;;1.73;;
48034;SDS011;33812;46.480;6.834;2024-03-08T09:22:51;4.32;;;1.60;;
48034;SDS011;33812;46.480;6.834;2024-03-08T09:26:53;4.57;;;2.00;;
48034;SDS011;33812;46.480;6.834;2024-03-08T09:30:55;9.80;;;1.50;;
48034;SDS011;33812;46.480;6.834;2024-03-08T09:34:58;5.20;;;1.70;;
48034;SDS011;33812;46.480;6.834;2024-03-08T09:39:02;4.85;;;1.30;;
48034;SDS011;33812;46.480;6.834;2024-03-08T09:43:07;3.58;;;1.55;;
48034;SDS011;33812;46.480;6.834;2024-03-08T09:47:13;2.17;;;1.25;;
48034;SDS011;33812;46.480;6.834;2024-03-08T09:51:15;4.43;;;1.58;;
48034;SDS011;33812;46.480;6.834;2024-03-08T09:55:19;2.88;;;1.48;;
48034;SDS011;33812;46.480;6.834;2024-03-08T09:59:22;6.20;;;1.65;;
48034;SDS011;33812;46.480;6.834;2024-03-08T10:03:56;5.50;;;2.33;;
48034;SDS011;33812;46.480;6.834;2024-03-08T10:07:58;4.03;;;1.90;;
48034;SDS011;33812;46.480;6.834;2024-03-08T10:12:00;3.50;;;1.52;;
48034;SDS011;33812;46.480;6.834;2024-03-08T10:16:03;3.63;;;1.75;;
48034;SDS011;33812;46.480;6.834;2024-03-08T10:20:08;5.03;;;1.75;;
48034;SDS011;33812;46.480;6.834;2024-03-08T10:24:15;2.80;;;1.60;;
48034;SDS011;33812;46.480;6.834;2024-03-08T10:28:18;3.28;;;1.73;;
48034;SDS011;33812;46.480;6.834;2024-03-08T10:32:20;5.40;;;1.70;;
48034;SDS011;33812;46.480;6.834;2024-03-08T10:36:25;3.22;;;1.50;;
48034;SDS011;33812;46.480;6.834;2024-03-08T10:40:29;2.80;;;1.52;;
48034;SDS011;33812;46.480;6.834;2024-03-08T10:44:37;2.78;;;1.50;;
48034;SDS011;33812;46.480;6.834;2024-03-08T10:48:48;2.40;;;1.35;;
48034;SDS011;33812;46.480;6.834;2024-03-08T10:52:52;2.75;;;1.55;;
48034;SDS011;33812;46.480;6.834;2024-03-08T10:56:55;1.60;;;1.15;;
48034;SDS011;33812;46.480;6.834;2024-03-08T11:00:57;2.88;;;1.33;;
48034;SDS011;33812;46.480;6.834;2024-03-08T11:04:59;2.72;;;1.48;;
48034;SDS011;33812;46.480;6.834;2024-03-08T11:09:07;2.17;;;1.00;;
48034;SDS011;33812;46.480;6.834;2024-03-08T11:17:40;2.65;;;1.60;;
48034;SDS011;33812;46.480;6.834;2024-03-08T11:21:46;2.42;;;1.20;;
48034;SDS011;33812;46.480;6.834;2024-03-08T11:25:50;2.25;;;1.52;;
48034;SDS011;33812;46.480;6.834;2024-03-08T11:30:02;1.92;;;1.13;;
48034;SDS011;33812;46.480;6.834;2024-03-08T11:34:14;2.53;;;1.25;;
48034;SDS011;33812;46.480;6.834;2024-03-08T11:38:19;3.15;;;1.27;;
48034;SDS011;33812;46.480;6.834;2024-03-08T11:42:22;3.53;;;1.45;;
48034;SDS011;33812;46.480;6.834;2024-03-08T11:46:24;2.70;;;1.52;;
48034;SDS011;33812;46.480;6.834;2024-03-08T11:50:28;4.23;;;1.40;;
48034;SDS011;33812;46.480;6.834;2024-03-08T11:54:30;3.33;;;1.65;;
48034;SDS011;33812;46.480;6.834;2024-03-08T11:58:33;6.75;;;1.40;;
48034;SDS011;33812;46.480;6.834;2024-03-08T12:02:37;2.45;;;1.17;;
48034;SDS011;33812;46.480;6.834;2024-03-08T12:06:41;1.70;;;1.27;;
48034;SDS011;33812;46.480;6.834;2024-03-08T12:10:45;6.28;;;1.15;;
48034;SDS011;33812;46.480;6.834;2024-03-08T12:14:48;2.00;;;1.50;;
48034;SDS011;33812;46.480;6.834;2024-03-08T12:18:50;3.00;;;1.35;;
48034;SDS011;33812;46.480;6.834;2024-03-08T12:22:53;3.42;;;1.25;;
48034;SDS011;33812;46.480;6.834;2024-03-08T12:26:56;1.90;;;1.13;;
48034;SDS011;33812;46.480;6.834;2024-03-08T12:31:00;4.43;;;1.33;;
48034;SDS011;33812;46.480;6.834;2024-03-08T12:35:02;2.58;;;1.48;;
48034;SDS011;33812;46.480;6.834;2024-03-08T12:39:06;2.83;;;1.27;;
48034;SDS011;33812;46.480;6.834;2024-03-08T12:43:12;4.28;;;1.20;;
48034;SDS011;33812;46.480;6.834;2024-03-08T12:47:17;1.38;;;0.85;;
48034;SDS011;33812;46.480;6.834;2024-03-08T12:51:20;2.83;;;1.15;;
48034;SDS011;33812;46.480;6.834;2024-03-08T12:55:22;3.90;;;1.58;;
48034;SDS011;33812;46.480;6.834;2024-03-08T12:59:24;5.75;;;1.85;;
48034;SDS011;33812;46.480;6.834;2024-03-08T13:03:28;4.60;;;1.65;;
48034;SDS011;33812;46.480;6.834;2024-03-08T13:07:29;4.60;;;1.38;;
48034;SDS011;33812;46.480;6.834;2024-03-08T13:11:31;5.13;;;1.75;;
48034;SDS011;33812;46.480;6.834;2024-03-08T13:15:36;3.70;;;1.75;;
48034;SDS011;33812;46.480;6.834;2024-03-08T13:19:39;5.13;;;1.45;;
48034;SDS011;33812;46.480;6.834;2024-03-08T13:23:42;10.17;;;2.57;;
48034;SDS011;33812;46.480;6.834;2024-03-08T13:27:46;3.53;;;1.80;;
48034;SDS011;33812;46.480;6.834;2024-03-08T13:31:49;7.68;;;1.55;;
48034;SDS011;33812;46.480;6.834;2024-03-08T13:35:53;4.93;;;1.83;;
48034;SDS011;33812;46.480;6.834;2024-03-08T13:39:55;2.13;;;1.35;;
48034;SDS011;33812;46.480;6.834;2024-03-08T13:43:57;3.20;;;1.63;;
48034;SDS011;33812;46.480;6.834;2024-03-08T13:47:58;2.92;;;1.60;;
48034;SDS011;33812;46.480;6.834;2024-03-08T13:52:02;6.82;;;2.53;;
48034;SDS011;33812;46.480;6.834;2024-03-08T13:56:04;5.38;;;1.40;;
48034;SDS011;33812;46.480;6.834;2024-03-08T14:00:07;5.63;;;1.50;;
48034;SDS011;33812;46.480;6.834;2024-03-08T14:04:09;3.72;;;1.77;;
48034;SDS011;33812;46.480;6.834;2024-03-08T14:08:12;4.57;;;1.50;;
48034;SDS011;33812;46.480;6.834;2024-03-08T14:12:14;2.10;;;1.40;;
48034;SDS011;33812;46.480;6.834;2024-03-08T14:16:16;2.78;;;1.40;;
48034;SDS011;33812;46.480;6.834;2024-03-08T14:20:18;2.90;;;1.20;;
48034;SDS011;33812;46.480;6.834;2024-03-08T14:24:21;2.13;;;1.30;;
48034;SDS011;33812;46.480;6.834;2024-03-08T14:28:24;2.53;;;1.50;;
48034;SDS011;33812;46.480;6.834;2024-03-08T14:32:27;3.72;;;1.25;;
48034;SDS011;33812;46.480;6.834;2024-03-08T14:36:29;2.20;;;1.20;;
48034;SDS011;33812;46.480;6.834;2024-03-08T14:40:32;1.38;;;1.17;;
48034;SDS011;33812;46.480;6.834;2024-03-08T14:44:34;1.17;;;1.05;;
48034;SDS011;33812;46.480;6.834;2024-03-08T14:48:36;2.05;;;1.40;;
48034;SDS011;33812;46.480;6.834;2024-03-08T14:52:38;1.85;;;1.00;;
48034;SDS011;33812;46.480;6.834;2024-03-08T14:56:41;4.32;;;1.48;;
48034;SDS011;33812;46.480;6.834;2024-03-08T15:00:43;2.63;;;1.50;;
48034;SDS011;33812;46.480;6.834;2024-03-08T15:04:46;2.88;;;1.20;;
48034;SDS011;33812;46.480;6.834;2024-03-08T15:08:56;1.40;;;1.08;;
48034;SDS011;33812;46.480;6.834;2024-03-08T15:13:00;2.33;;;1.40;;
48034;SDS011;33812;46.480;6.834;2024-03-08T15:17:08;1.30;;;1.17;;
48034;SDS011;33812;46.480;6.834;2024-03-08T15:21:17;2.08;;;1.30;;
48034;SDS011;33812;46.480;6.834;2024-03-08T15:25:19;1.67;;;1.13;;
48034;SDS011;33812;46.480;6.834;2024-03-08T15:29:27;2.20;;;1.20;;
48034;SDS011;33812;46.480;6.834;2024-03-08T15:33:29;1.60;;;1.25;;
48034;SDS011;33812;46.480;6.834;2024-03-08T15:37:31;1.83;;;1.50;;
48034;SDS011;33812;46.480;6.834;2024-03-08T15:41:33;2.28;;;1.33;;
48034;SDS011;33812;46.480;6.834;2024-03-08T15:45:37;2.33;;;1.45;;
48034;SDS011;33812;46.480;6.834;2024-03-08T15:49:38;1.88;;;1.20;;
48034;SDS011;33812;46.480;6.834;2024-03-08T15:53:40;1.23;;;1.10;;
48034;SDS011;33812;46.480;6.834;2024-03-08T15:57:44;3.00;;;1.10;;
48034;SDS011;33812;46.480;6.834;2024-03-08T16:01:48;1.95;;;1.58;;
48034;SDS011;33812;46.480;6.834;2024-03-08T16:05:51;4.13;;;1.33;;
48034;SDS011;33812;46.480;6.834;2024-03-08T16:09:54;2.15;;;1.50;;
48034;SDS011;33812;46.480;6.834;2024-03-08T16:13:55;2.15;;;1.35;;
48034;SDS011;33812;46.480;6.834;2024-03-08T16:17:59;1.35;;;1.23;;
48034;SDS011;33812;46.480;6.834;2024-03-08T16:22:04;1.25;;;1.10;;
48034;SDS011;33812;46.480;6.834;2024-03-08T16:26:05;17.23;;;2.25;;
48034;SDS011;33812;46.480;6.834;2024-03-08T16:30:09;3.20;;;2.03;;
48034;SDS011;33812;46.480;6.834;2024-03-08T16:34:17;5.35;;;2.97;;
48034;SDS011;33812;46.480;6.834;2024-03-08T16:38:18;8.20;;;2.22;;
48034;SDS011;33812;46.480;6.834;2024-03-08T16:42:20;9.95;;;3.78;;
48034;SDS011;33812;46.480;6.834;2024-03-08T16:46:23;4.43;;;2.88;;
48034;SDS011;33812;46.480;6.834;2024-03-08T16:50:26;18.00;;;3.53;;
48034;SDS011;33812;46.480;6.834;2024-03-08T16:54:31;9.32;;;2.95;;
48034;SDS011;33812;46.480;6.834;2024-03-08T16:58:34;8.20;;;2.88;;
48034;SDS011;33812;46.480;6.834;2024-03-08T17:02:35;13.77;;;3.75;;
48034;SDS011;33812;46.480;6.834;2024-03-08T17:06:40;17.77;;;3.05;;
48034;SDS011;33812;46.480;6.834;2024-03-08T17:10:43;15.38;;;3.45;;
48034;SDS011;33812;46.480;6.834;2024-03-08T17:14:45;13.50;;;3.28;;
48034;SDS011;33812;46.480;6.834;2024-03-08T17:18:47;9.82;;;3.25;;
48034;SDS011;33812;46.480;6.834;2024-03-08T17:22:51;22.45;;;3.00;;
48034;SDS011;33812;46.480;6.834;2024-03-08T17:26:55;12.85;;;2.90;;
48034;SDS011;33812;46.480;6.834;2024-03-08T17:30:58;12.02;;;2.53;;
48034;SDS011;33812;46.480;6.834;2024-03-08T17:35:00;9.00;;;3.08;;
48034;SDS011;33812;46.480;6.834;2024-03-08T17:39:04;9.10;;;2.65;;
48034;SDS011;33812;46.480;6.834;2024-03-08T17:43:17;9.15;;;2.60;;
48034;SDS011;33812;46.480;6.834;2024-03-08T17:47:23;15.93;;;3.17;;
48034;SDS011;33812;46.480;6.834;2024-03-08T17:51:27;8.23;;;2.55;;
48034;SDS011;33812;46.480;6.834;2024-03-08T17:55:31;8.82;;;2.85;;
48034;SDS011;33812;46.480;6.834;2024-03-08T17:59:34;9.57;;;2.67;;
48034;SDS011;33812;46.480;6.834;2024-03-08T18:03:35;17.05;;;3.42;;
48034;SDS011;33812;46.480;6.834;2024-03-08T18:07:37;10.77;;;2.97;;
48034;SDS011;33812;46.480;6.834;2024-03-08T18:11:41;15.45;;;2.88;;
48034;SDS011;33812;46.480;6.834;2024-03-08T18:15:44;20.40;;;3.40;;
48034;SDS011;33812;46.480;6.834;2024-03-08T18:19:46;23.65;;;3.25;;
48034;SDS011;33812;46.480;6.834;2024-03-08T18:23:49;10.73;;;2.67;;
48034;SDS011;33812;46.480;6.834;2024-03-08T18:27:52;20.38;;;3.33;;
48034;SDS011;33812;46.480;6.834;2024-03-08T18:31:54;15.30;;;3.22;;
48034;SDS011;33812;46.480;6.834;2024-03-08T18:35:56;29.60;;;3.35;;
48034;SDS011;33812;46.480;6.834;2024-03-08T18:39:59;7.78;;;3.03;;
48034;SDS011;33812;46.480;6.834;2024-03-08T18:44:03;16.23;;;3.58;;
48034;SDS011;33812;46.480;6.834;2024-03-08T18:48:05;23.00;;;2.80;;
48034;SDS011;33812;46.480;6.834;2024-03-08T18:52:10;12.85;;;3.40;;
48034;SDS011;33812;46.480;6.834;2024-03-08T18:56:12;16.05;;;3.58;;
48034;SDS011;33812;46.480;6.834;2024-03-08T19:04:27;11.57;;;3.00;;
48034;SDS011;33812;46.480;6.834;2024-03-08T19:08:42;10.63;;;2.70;;
48034;SDS011;33812;46.480;6.834;2024-03-08T19:12:47;10.38;;;3.38;;
48034;SDS011;33812;46.480;6.834;2024-03-08T19:17:01;8.95;;;3.00;;
48034;SDS011;33812;46.480;6.834;2024-03-08T19:21:07;10.80;;;3.20;;
48034;SDS011;33812;46.480;6.834;2024-03-08T19:25:15;9.10;;;2.90;;
48034;SDS011;33812;46.480;6.834;2024-03-08T19:29:28;7.95;;;2.92;;
48034;SDS011;33812;46.480;6.834;2024-03-08T19:33:33;6.95;;;2.65;;
48034;SDS011;33812;46.480;6.834;2024-03-08T19:37:36;9.02;;;3.38;;
48034;SDS011;33812;46.480;6.834;2024-03-08T19:41:39;8.88;;;3.00;;
48034;SDS011;33812;46.480;6.834;2024-03-08T19:45:41;8.80;;;2.70;;
48034;SDS011;33812;46.480;6.834;2024-03-08T19:49:45;16.50;;;4.57;;
48034;SDS011;33812;46.480;6.834;2024-03-08T19:53:48;20.45;;;4.55;;
48034;SDS011;33812;46.480;6.834;2024-03-08T19:57:51;16.42;;;3.63;;
48034;SDS011;33812;46.480;6.834;2024-03-08T20:01:56;13.90;;;3.67;;
48034;SDS011;33812;46.480;6.834;2024-03-08T20:06:00;14.23;;;3.72;;
48034;SDS011;33812;46.480;6.834;2024-03-08T20:10:06;12.57;;;4.00;;
48034;SDS011;33812;46.480;6.834;2024-03-08T20:14:10;8.60;;;3.97;;
48034;SDS011;33812;46.480;6.834;2024-03-08T20:18:12;12.07;;;3.90;;
48034;SDS011;33812;46.480;6.834;2024-03-08T20:22:16;9.43;;;3.63;;
48034;SDS011;33812;46.480;6.834;2024-03-08T20:26:19;13.30;;;3.60;;
48034;SDS011;33812;46.480;6.834;2024-03-08T20:30:23;23.33;;;4.28;;
48034;SDS011;33812;46.480;6.834;2024-03-08T20:34:28;10.82;;;4.05;;
48034;SDS011;33812;46.480;6.834;2024-03-08T20:38:31;19.17;;;3.95;;
48034;SDS011;33812;46.480;6.834;2024-03-08T20:42:33;9.93;;;3.38;;
48034;SDS011;33812;46.480;6.834;2024-03-08T20:46:37;7.78;;;3.38;;
48034;SDS011;33812;46.480;6.834;2024-03-08T20:50:40;20.33;;;4.28;;
48034;SDS011;33812;46.480;6.834;2024-03-08T20:54:43;11.30;;;3.53;;
48034;SDS011;33812;46.480;6.834;2024-03-08T20:58:47;14.23;;;3.65;;
48034;SDS011;33812;46.480;6.834;2024-03-08T21:02:49;13.98;;;3.92;;
48034;SDS011;33812;46.480;6.834;2024-03-08T21:06:51;13.93;;;3.60;;
48034;SDS011;33812;46.480;6.834;2024-03-08T21:10:55;13.00;;;3.38;;
48034;SDS011;33812;46.480;6.834;2024-03-08T21:14:57;7.93;;;3.10;;
48034;SDS011;33812;46.480;6.834;2024-03-08T21:18:59;8.93;;;2.92;;
48034;SDS011;33812;46.480;6.834;2024-03-08T21:23:01;10.43;;;3.38;;
48034;SDS011;33812;46.480;6.834;2024-03-08T21:27:06;7.07;;;2.85;;
48034;SDS011;33812;46.480;6.834;2024-03-08T21:31:08;10.27;;;3.22;;
48034;SDS011;33812;46.480;6.834;2024-03-08T21:35:10;8.63;;;2.83;;
48034;SDS011;33812;46.480;6.834;2024-03-08T21:39:13;10.60;;;3.10;;
48034;SDS011;33812;46.480;6.834;2024-03-08T21:43:17;7.97;;;3.13;;
48034;SDS011;33812;46.480;6.834;2024-03-08T21:47:19;8.35;;;2.70;;
48034;SDS011;33812;46.480;6.834;2024-03-08T21:51:21;8.52;;;3.13;;
48034;SDS011;33812;46.480;6.834;2024-03-08T21:55:23;6.00;;;2.95;;
48034;SDS011;33812;46.480;6.834;2024-03-08T21:59:27;4.80;;;2.60;;
48034;SDS011;33812;46.480;6.834;2024-03-08T22:03:29;5.72;;;2.78;;
48034;SDS011;33812;46.480;6.834;2024-03-08T22:07:33;5.15;;;2.70;;
48034;SDS011;33812;46.480;6.834;2024-03-08T22:11:36;7.03;;;3.28;;
48034;SDS011;33812;46.480;6.834;2024-03-08T22:15:39;4.90;;;2.78;;
48034;SDS011;33812;46.480;6.834;2024-03-08T22:19:45;5.43;;;2.92;;
48034;SDS011;33812;46.480;6.834;2024-03-08T22:23:48;7.82;;;2.60;;
48034;SDS011;33812;46.480;6.834;2024-03-08T22:27:49;4.30;;;2.60;;
48034;SDS011;33812;46.480;6.834;2024-03-08T22:31:53;6.22;;;2.95;;
48034;SDS011;33812;46.480;6.834;2024-03-08T22:35:55;5.45;;;2.58;;
48034;SDS011;33812;46.480;6.834;2024-03-08T22:39:58;6.22;;;2.47;;
48034;SDS011;33812;46.480;6.834;2024-03-08T22:43:59;3.08;;;2.38;;
48034;SDS011;33812;46.480;6.834;2024-03-08T22:48:05;3.70;;;2.40;;
48034;SDS011;33812;46.480;6.834;2024-03-08T22:52:07;3.95;;;2.70;;
48034;SDS011;33812;46.480;6.834;2024-03-08T22:56:10;4.40;;;2.60;;
48034;SDS011;33812;46.480;6.834;2024-03-08T23:00:14;4.63;;;2.80;;
48034;SDS011;33812;46.480;6.834;2024-03-08T23:04:41;3.85;;;2.40;;
48034;SDS011;33812;46.480;6.834;2024-03-08T23:08:43;5.60;;;2.95;;
48034;SDS011;33812;46.480;6.834;2024-03-08T23:12:45;3.60;;;2.47;;
48034;SDS011;33812;46.480;6.834;2024-03-08T23:16:47;2.78;;;2.30;;
48034;SDS011;33812;46.480;6.834;2024-03-08T23:20:51;6.18;;;2.60;;
48034;SDS011;33812;46.480;6.834;2024-03-08T23:24:55;6.25;;;2.92;;
48034;SDS011;33812;46.480;6.834;2024-03-08T23:28:59;3.72;;;2.20;;
48034;SDS011;33812;46.480;6.834;2024-03-08T23:33:01;4.00;;;2.70;;
48034;SDS011;33812;46.480;6.834;2024-03-08T23:37:06;3.33;;;2.75;;
48034;SDS011;33812;46.480;6.834;2024-03-08T23:41:08;3.58;;;2.40;;
48034;SDS011;33812;46.480;6.834;2024-03-08T23:45:10;4.90;;;2.35;;
48034;SDS011;33812;46.480;6.834;2024-03-08T23:49:12;3.58;;;2.60;;
48034;SDS011;33812;46.480;6.834;2024-03-08T23:53:18;4.60;;;2.30;;
48034;SDS011;33812;46.480;6.834;2024-03-08T23:57:20;2.83;;;2.25;;
